createdAt,value
2018-08-17T00:00:57.978Z,6.47
2018-08-17T00:03:26.683Z,6.27
2018-08-17T00:05:55.263Z,6.20
2018-08-17T00:08:24.030Z,6.50
2018-08-17T00:10:52.721Z,6.20
2018-08-17T00:13:21.398Z,6.40
2018-08-17T00:15:50.063Z,6.23
2018-08-17T00:18:18.723Z,6.70
2018-08-17T00:20:47.396Z,6.47
2018-08-17T00:23:16.033Z,6.40
2018-08-17T00:25:44.727Z,6.77
2018-08-17T00:28:13.355Z,6.63
2018-08-17T00:30:41.936Z,6.60
2018-08-17T00:33:10.493Z,6.03
2018-08-17T00:35:39.065Z,6.63
2018-08-17T00:38:07.638Z,6.50
2018-08-17T00:40:36.471Z,7.17
2018-08-17T00:43:05.259Z,6.80
2018-08-17T00:45:33.854Z,6.83
2018-08-17T00:48:02.565Z,7.23
2018-08-17T00:50:31.405Z,6.93
2018-08-17T00:53:00.141Z,7.00
2018-08-17T00:55:28.897Z,6.83
2018-08-17T00:57:57.621Z,6.80
2018-08-17T01:00:27.333Z,7.00
2018-08-17T01:02:56.006Z,6.93
2018-08-17T01:05:24.673Z,6.77
2018-08-17T01:07:53.301Z,7.57
2018-08-17T01:10:21.906Z,7.17
2018-08-17T01:12:50.566Z,6.47
2018-08-17T01:15:19.206Z,6.63
2018-08-17T01:17:48.166Z,6.70
2018-08-17T01:20:16.981Z,6.80
2018-08-17T01:22:45.654Z,6.80
2018-08-17T01:25:14.326Z,6.50
2018-08-17T01:27:42.917Z,6.80
2018-08-17T01:30:11.523Z,7.70
2018-08-17T01:32:40.119Z,7.20
2018-08-17T01:35:08.746Z,6.80
2018-08-17T01:37:37.318Z,7.50
2018-08-17T01:40:06.113Z,7.63
2018-08-17T01:42:34.825Z,6.97
2018-08-17T01:45:03.586Z,7.47
2018-08-17T01:47:32.285Z,7.23
2018-08-17T01:50:01.059Z,7.17
2018-08-17T01:52:29.825Z,7.27
2018-08-17T01:54:58.589Z,7.13
2018-08-17T01:57:27.338Z,6.83
2018-08-17T01:59:56.265Z,7.73
2018-08-17T02:02:25.066Z,7.73
2018-08-17T02:04:53.863Z,7.77
2018-08-17T02:07:22.640Z,7.63
2018-08-17T02:09:51.250Z,7.60
2018-08-17T02:12:19.833Z,7.93
2018-08-17T02:14:48.592Z,7.73
2018-08-17T02:17:17.150Z,7.87
2018-08-17T02:19:45.731Z,7.63
2018-08-17T02:22:14.305Z,7.33
2018-08-17T02:24:42.968Z,7.07
2018-08-17T02:27:11.685Z,7.03
2018-08-17T02:29:40.333Z,7.17
2018-08-17T02:32:08.995Z,6.47
2018-08-17T02:34:37.715Z,6.83
2018-08-17T02:37:06.358Z,6.57
2018-08-17T02:39:34.979Z,6.30
2018-08-17T02:42:03.576Z,6.20
2018-08-17T02:44:32.685Z,7.53
2018-08-17T02:47:01.250Z,6.70
2018-08-17T02:49:29.831Z,6.40
2018-08-17T02:51:58.501Z,6.43
2018-08-17T02:54:27.171Z,6.47
2018-08-17T02:56:55.898Z,7.00
2018-08-17T02:59:24.596Z,6.43
2018-08-17T03:01:53.408Z,6.80
2018-08-17T03:04:22.105Z,7.07
2018-08-17T03:06:50.853Z,6.47
2018-08-17T03:09:19.608Z,6.60
2018-08-17T03:11:48.211Z,6.77
2018-08-17T03:14:16.810Z,6.97
2018-08-17T03:16:45.435Z,7.00
2018-08-17T03:19:13.985Z,6.93
2018-08-17T03:21:42.684Z,7.90
2018-08-17T03:24:11.358Z,7.07
2018-08-17T03:26:40.111Z,7.53
2018-08-17T03:29:08.857Z,7.90
2018-08-17T03:31:37.530Z,7.53
2018-08-17T03:34:06.239Z,8.37
2018-08-17T03:36:34.895Z,7.77
2018-08-17T03:39:05.501Z,7.27
2018-08-17T03:41:36.291Z,6.50
2018-08-17T03:44:05.417Z,7.03
2018-08-17T03:46:34.078Z,6.97
2018-08-17T03:49:02.812Z,6.70
2018-08-17T03:51:31.523Z,6.57
2018-08-17T03:54:00.273Z,6.90
2018-08-17T03:56:28.946Z,7.73
2018-08-17T03:58:57.685Z,7.90
2018-08-17T04:01:26.379Z,7.63
2018-08-17T04:03:55.105Z,7.67
2018-08-17T04:06:23.808Z,6.77
2018-08-17T04:08:52.605Z,6.87
2018-08-17T04:11:21.293Z,7.30
2018-08-17T04:13:49.990Z,7.53
2018-08-17T04:16:18.678Z,6.70
2018-08-17T04:18:55.867Z,6.80
2018-08-17T04:21:24.678Z,6.97
2018-08-17T04:23:53.591Z,7.70
2018-08-17T04:26:22.310Z,7.40
2018-08-17T04:28:51.564Z,7.57
2018-08-17T04:31:20.398Z,8.50
2018-08-17T04:33:49.046Z,8.67
2018-08-17T04:36:18.441Z,8.93
2018-08-17T04:38:47.818Z,8.63
2018-08-17T04:41:16.569Z,8.43
2018-08-17T04:43:45.519Z,8.70
2018-08-17T04:46:14.293Z,8.63
2018-08-17T04:48:43.021Z,7.93
2018-08-17T04:51:11.855Z,7.13
2018-08-17T04:53:40.625Z,7.70
2018-08-17T04:56:09.582Z,7.43
2018-08-17T04:58:38.278Z,6.60
2018-08-17T05:01:07.006Z,6.53
2018-08-17T05:03:35.696Z,5.67
2018-08-17T05:06:04.426Z,6.00
2018-08-17T05:08:33.176Z,5.87
2018-08-17T05:11:01.848Z,5.90
2018-08-17T05:13:30.540Z,5.33
2018-08-17T05:15:59.098Z,5.43
2018-08-17T05:18:27.756Z,5.30
2018-08-17T05:20:56.444Z,5.50
2018-08-17T05:23:25.234Z,5.47
2018-08-17T05:25:53.923Z,5.20
2018-08-17T05:28:22.639Z,5.27
2018-08-17T05:30:52.401Z,5.10
2018-08-17T05:33:21.193Z,5.37
2018-08-17T05:35:50.019Z,5.17
2018-08-17T05:38:19.046Z,5.20
2018-08-17T05:40:47.745Z,5.20
2018-08-17T05:43:16.362Z,4.83
2018-08-17T05:45:45.017Z,5.10
2018-08-17T05:48:13.776Z,5.00
2018-08-17T05:50:42.458Z,5.13
2018-08-17T05:53:11.199Z,5.47
2018-08-17T05:55:39.934Z,5.27
2018-08-17T05:58:08.634Z,5.27
2018-08-17T06:00:37.887Z,4.77
2018-08-17T06:03:06.579Z,5.27
2018-08-17T06:05:35.348Z,4.40
2018-08-17T06:08:04.141Z,4.50
2018-08-17T06:10:32.950Z,4.23
2018-08-17T06:13:01.724Z,4.87
2018-08-17T06:15:30.554Z,4.50
2018-08-17T06:17:59.303Z,3.55
2018-08-17T06:20:28.044Z,4.60
2018-08-17T06:22:56.766Z,3.90
2018-08-17T06:25:26.800Z,4.03
2018-08-17T06:27:56.194Z,3.72
2018-08-17T06:30:24.963Z,3.77
2018-08-17T06:32:53.649Z,3.72
2018-08-17T06:35:22.393Z,3.55
2018-08-17T06:37:51.083Z,3.98
2018-08-17T06:40:19.838Z,4.65
2018-08-17T06:42:48.460Z,3.95
2018-08-17T06:45:17.205Z,3.90
2018-08-17T06:47:45.865Z,4.05
2018-08-17T06:50:14.660Z,3.80
2018-08-17T06:52:43.446Z,4.47
2018-08-17T06:55:12.358Z,4.35
2018-08-17T06:57:41.128Z,4.35
2018-08-17T07:00:15.348Z,3.92
2018-08-17T07:02:47.308Z,4.35
2018-08-17T07:05:16.800Z,3.98
2018-08-17T07:07:45.731Z,4.00
2018-08-17T07:10:14.638Z,3.70
2018-08-17T07:12:49.044Z,3.55
2018-08-17T07:15:17.706Z,3.22
2018-08-17T07:17:46.451Z,3.62
2018-08-17T07:20:16.301Z,3.22
2018-08-17T07:22:45.089Z,3.47
2018-08-17T07:25:13.942Z,3.10
2018-08-17T07:27:43.794Z,3.27
2018-08-17T07:30:15.113Z,3.55
2018-08-17T07:32:44.395Z,3.35
2018-08-17T07:35:13.292Z,4.25
2018-08-17T07:37:42.091Z,3.02
2018-08-17T07:40:11.058Z,3.08
2018-08-17T07:42:39.836Z,2.90
2018-08-17T07:45:08.916Z,3.10
2018-08-17T07:47:37.715Z,3.00
2018-08-17T07:50:06.490Z,3.00
2018-08-17T07:52:35.119Z,2.80
2018-08-17T07:55:03.891Z,3.33
2018-08-17T07:57:32.814Z,3.17
2018-08-17T08:00:01.845Z,2.98
2018-08-17T08:02:30.924Z,2.85
2018-08-17T08:04:59.711Z,2.83
2018-08-17T08:07:29.203Z,2.90
2018-08-17T08:09:59.281Z,3.00
2018-08-17T08:12:28.001Z,3.50
2018-08-17T08:14:56.664Z,2.70
2018-08-17T08:17:25.313Z,3.30
2018-08-17T08:20:11.114Z,3.00
2018-08-17T08:22:39.796Z,3.10
2018-08-17T08:25:08.522Z,3.27
2018-08-17T08:27:37.254Z,2.98
2018-08-17T08:30:07.104Z,3.00
2018-08-17T08:32:35.778Z,4.28
2018-08-17T08:35:05.419Z,2.80
2018-08-17T08:37:39.646Z,3.12
2018-08-17T08:40:08.394Z,3.20
2018-08-17T08:42:37.066Z,3.25
2018-08-17T08:45:05.821Z,3.25
2018-08-17T08:47:34.448Z,3.10
2018-08-17T08:50:03.621Z,3.00
2018-08-17T08:52:32.370Z,3.20
2018-08-17T08:55:01.074Z,3.02
2018-08-17T08:57:29.861Z,3.40
2018-08-17T08:59:58.541Z,3.33
2018-08-17T09:02:27.201Z,3.22
2018-08-17T09:04:55.908Z,3.15
2018-08-17T09:07:25.276Z,3.50
2018-08-17T09:09:54.032Z,3.70
2018-08-17T09:12:22.798Z,3.40
2018-08-17T09:14:51.546Z,3.42
2018-08-17T09:17:20.237Z,3.25
2018-08-17T09:19:48.966Z,3.50
2018-08-17T09:22:17.676Z,3.33
2018-08-17T09:24:46.486Z,3.20
2018-08-17T09:27:15.261Z,3.00
2018-08-17T09:29:43.997Z,3.40
2018-08-17T09:32:13.187Z,3.40
2018-08-17T09:34:42.008Z,3.25
2018-08-17T09:37:10.783Z,3.00
2018-08-17T09:39:39.499Z,3.08
2018-08-17T09:42:08.297Z,3.00
2018-08-17T09:44:37.129Z,3.30
2018-08-17T09:47:06.128Z,3.00
2018-08-17T09:49:34.836Z,3.15
2018-08-17T09:52:03.980Z,3.30
2018-08-17T09:54:32.731Z,3.00
2018-08-17T09:57:01.509Z,3.10
2018-08-17T09:59:30.189Z,3.22
2018-08-17T10:02:04.433Z,2.95
2018-08-17T10:04:40.590Z,2.70
2018-08-17T10:07:15.338Z,3.20
2018-08-17T10:09:49.739Z,3.62
2018-08-17T10:12:18.492Z,2.80
2018-08-17T10:14:47.236Z,4.33
2018-08-17T10:17:15.956Z,3.00
2018-08-17T10:19:44.806Z,4.40
2018-08-17T10:22:13.564Z,3.17
2018-08-17T10:24:42.304Z,4.58
2018-08-17T10:27:11.063Z,3.67
2018-08-17T10:29:40.173Z,2.90
2018-08-17T10:32:09.094Z,2.87
2018-08-17T10:34:37.821Z,2.90
2018-08-17T10:37:06.970Z,2.85
2018-08-17T10:39:35.702Z,2.92
2018-08-17T10:42:04.523Z,2.70
2018-08-17T10:44:33.605Z,2.70
2018-08-17T10:47:02.537Z,2.90
2018-08-17T10:49:31.335Z,2.80
2018-08-17T10:52:00.141Z,2.83
2018-08-17T10:54:28.849Z,3.20
2018-08-17T10:56:57.662Z,3.00
2018-08-17T10:59:26.745Z,2.65
2018-08-17T11:01:55.569Z,2.60
2018-08-17T11:04:25.442Z,2.90
2018-08-17T11:06:54.310Z,2.80
2018-08-17T11:09:23.643Z,2.80
2018-08-17T11:11:52.381Z,3.10
2018-08-17T11:14:21.248Z,3.00
2018-08-17T11:16:50.072Z,3.15
2018-08-17T11:19:18.788Z,2.98
2018-08-17T11:21:47.569Z,2.75
2018-08-17T11:24:16.289Z,3.10
2018-08-17T11:26:45.101Z,2.70
2018-08-17T11:29:13.824Z,2.90
2018-08-17T11:31:42.561Z,2.90
2018-08-17T11:34:11.307Z,2.60
2018-08-17T11:36:40.181Z,2.90
2018-08-17T11:39:08.999Z,2.25
2018-08-17T11:41:37.688Z,2.70
2018-08-17T11:44:12.107Z,2.80
2018-08-17T11:46:40.836Z,3.22
2018-08-17T11:49:09.916Z,2.70
2018-08-17T11:51:40.691Z,2.83
2018-08-17T11:54:10.922Z,2.62
2018-08-17T11:56:39.919Z,2.90
2018-08-17T11:59:08.573Z,2.80
2018-08-17T12:01:37.491Z,2.70
2018-08-17T12:04:06.351Z,2.87
2018-08-17T12:06:35.081Z,2.92
2018-08-17T12:09:05.329Z,2.98
2018-08-17T12:11:33.976Z,2.92
2018-08-17T12:14:02.686Z,2.62
2018-08-17T12:16:36.931Z,2.52
2018-08-17T12:19:06.870Z,2.33
2018-08-17T12:21:35.817Z,2.50
2018-08-17T12:24:04.897Z,2.30
2018-08-17T12:26:38.450Z,2.80
2018-08-17T12:29:07.174Z,2.62
2018-08-17T12:31:35.904Z,2.72
2018-08-17T12:34:04.661Z,2.72
2018-08-17T12:36:33.476Z,2.70
2018-08-17T12:39:02.781Z,2.50
2018-08-17T12:41:37.466Z,2.85
2018-08-17T12:44:06.295Z,2.85
2018-08-17T12:46:35.670Z,2.58
2018-08-17T12:49:04.314Z,2.30
2018-08-17T12:51:33.449Z,2.60
2018-08-17T12:54:02.873Z,2.40
2018-08-17T12:56:31.753Z,2.72
2018-08-17T12:59:00.988Z,2.60
2018-08-17T13:01:30.981Z,2.50
2018-08-17T13:04:05.267Z,2.77
2018-08-17T13:06:34.906Z,2.70
2018-08-17T13:09:09.342Z,2.83
2018-08-17T13:11:46.039Z,2.65
2018-08-17T13:14:15.506Z,2.45
2018-08-17T13:16:44.760Z,2.77
2018-08-17T13:19:13.592Z,2.55
2018-08-17T13:21:42.687Z,2.75
2018-08-17T13:24:11.605Z,2.45
2018-08-17T13:26:40.344Z,2.42
2018-08-17T13:29:09.205Z,2.52
2018-08-17T13:31:38.123Z,2.35
2018-08-17T13:34:07.551Z,2.58
2018-08-17T13:36:36.467Z,2.10
2018-08-17T13:39:09.732Z,2.33
2018-08-17T13:41:44.409Z,2.42
2018-08-17T13:44:13.161Z,2.65
2018-08-17T13:46:42.006Z,2.47
2018-08-17T13:49:12.035Z,2.55
2018-08-17T13:51:40.798Z,2.40
2018-08-17T13:54:10.367Z,2.40
2018-08-17T13:56:39.046Z,2.42
2018-08-17T13:59:08.055Z,2.45
2018-08-17T14:01:37.151Z,2.37
2018-08-17T14:04:06.115Z,2.87
2018-08-17T14:06:35.086Z,2.62
2018-08-17T14:09:05.686Z,2.22
2018-08-17T14:11:34.643Z,2.50
2018-08-17T14:14:03.612Z,2.50
2018-08-17T14:16:32.621Z,3.00
2018-08-17T14:19:01.627Z,2.90
2018-08-17T14:21:30.837Z,2.70
2018-08-17T14:24:00.514Z,3.00
2018-08-17T14:26:29.806Z,3.17
2018-08-17T14:28:58.776Z,3.00
2018-08-17T14:31:27.251Z,3.30
2018-08-17T14:33:55.706Z,3.20
2018-08-17T14:36:24.173Z,3.20
2018-08-17T14:38:52.696Z,3.10
2018-08-17T14:41:21.202Z,3.10
2018-08-17T14:43:49.766Z,3.20
2018-08-17T14:46:18.734Z,3.20
2018-08-17T14:48:47.409Z,3.12
2018-08-17T14:51:16.069Z,2.98
2018-08-17T14:53:44.692Z,3.75
2018-08-17T14:56:13.222Z,2.80
2018-08-17T14:58:41.798Z,2.83
2018-08-17T15:01:10.435Z,3.40
2018-08-17T15:03:39.006Z,3.83
2018-08-17T15:06:07.564Z,4.05
2018-08-17T15:08:36.211Z,3.37
2018-08-17T15:11:05.172Z,3.22
2018-08-17T15:13:34.389Z,2.60
2018-08-17T15:16:02.900Z,2.50
2018-08-17T15:18:31.542Z,2.60
2018-08-17T15:21:00.138Z,2.62
2018-08-17T15:23:28.619Z,2.80
2018-08-17T15:25:57.055Z,2.65
2018-08-17T15:28:30.982Z,3.10
2018-08-17T15:30:59.450Z,2.98
2018-08-17T15:33:27.927Z,3.17
2018-08-17T15:35:56.413Z,2.80
2018-08-17T15:38:24.825Z,3.25
2018-08-17T15:40:53.405Z,3.33
2018-08-17T15:43:22.004Z,3.55
2018-08-17T15:45:50.658Z,2.92
2018-08-17T15:48:19.368Z,2.90
2018-08-17T15:50:47.978Z,3.25
2018-08-17T15:53:16.518Z,2.72
2018-08-17T15:55:45.033Z,3.20
2018-08-17T15:58:13.544Z,3.10
2018-08-17T16:00:42.091Z,4.30
2018-08-17T16:03:10.989Z,3.45
2018-08-17T16:08:33.986Z,2.92
2018-08-17T16:11:02.568Z,3.00
2018-08-17T16:13:31.055Z,3.27
2018-08-17T16:15:59.523Z,3.50
2018-08-17T16:18:28.097Z,2.98
2018-08-17T16:20:56.638Z,3.08
2018-08-17T16:23:25.236Z,3.00
2018-08-17T16:25:53.804Z,3.00
2018-08-17T16:28:22.421Z,2.95
2018-08-17T16:30:51.110Z,2.83
2018-08-17T16:33:19.770Z,2.90
2018-08-17T16:35:48.638Z,2.60
2018-08-17T16:38:17.190Z,2.98
2018-08-17T16:40:51.778Z,3.05
2018-08-17T16:43:26.160Z,3.10
2018-08-17T16:45:54.838Z,3.30
2018-08-17T16:48:23.379Z,3.55
2018-08-17T16:50:51.911Z,4.00
2018-08-17T16:53:20.779Z,3.47
2018-08-17T16:55:49.268Z,3.20
2018-08-17T16:58:24.593Z,3.30
2018-08-17T17:00:53.118Z,3.22
2018-08-17T17:03:21.618Z,3.33
2018-08-17T17:05:55.567Z,2.83
2018-08-17T17:08:24.441Z,2.80
2018-08-17T17:10:52.941Z,2.55
2018-08-17T17:13:21.511Z,2.98
2018-08-17T17:15:50.162Z,2.90
2018-08-17T17:18:18.829Z,3.22
2018-08-17T17:20:47.555Z,3.08
2018-08-17T17:23:17.198Z,3.10
2018-08-17T17:25:46.511Z,3.47
2018-08-17T17:28:16.151Z,3.00
2018-08-17T17:30:50.272Z,3.37
2018-08-17T17:33:19.183Z,3.00
2018-08-17T17:35:47.886Z,3.20
2018-08-17T17:38:16.548Z,3.20
2018-08-17T17:40:45.034Z,2.95
2018-08-17T17:43:13.636Z,3.95
2018-08-17T17:45:43.764Z,3.12
2018-08-17T17:48:12.312Z,3.60
2018-08-17T17:50:40.796Z,3.37
2018-08-17T17:53:09.306Z,3.55
2018-08-17T17:55:44.240Z,3.20
2018-08-17T17:58:15.851Z,3.55
2018-08-17T18:00:57.267Z,3.80
2018-08-17T18:03:29.234Z,3.40
2018-08-17T18:06:04.015Z,3.62
2018-08-17T18:08:32.808Z,3.60
2018-08-17T18:11:01.480Z,4.17
2018-08-17T18:13:30.331Z,4.33
2018-08-17T18:15:58.968Z,4.20
2018-08-17T18:18:27.553Z,3.95
2018-08-17T18:20:56.150Z,4.45
2018-08-17T18:23:24.682Z,4.10
2018-08-17T18:25:53.343Z,4.40
2018-08-17T18:28:21.905Z,5.53
2018-08-17T18:30:50.404Z,4.22
2018-08-17T18:33:18.896Z,4.70
2018-08-17T18:35:47.379Z,4.70
2018-08-17T18:38:15.876Z,5.30
2018-08-17T18:40:44.345Z,4.70
2018-08-17T18:43:12.776Z,4.87
2018-08-17T18:45:41.358Z,4.35
2018-08-17T18:48:09.879Z,4.30
2018-08-17T18:50:38.448Z,4.27
2018-08-17T18:53:07.028Z,4.43
2018-08-17T18:55:35.579Z,4.30
2018-08-17T18:58:04.601Z,4.37
2018-08-17T19:00:33.076Z,4.60
2018-08-17T19:03:01.944Z,4.20
2018-08-17T19:05:30.380Z,4.83
2018-08-17T19:07:59.011Z,4.63
2018-08-17T19:10:27.635Z,4.90
2018-08-17T19:12:56.530Z,4.80
2018-08-17T19:15:25.028Z,5.13
2018-08-17T19:17:53.674Z,6.10
2018-08-17T19:20:22.281Z,4.53
2018-08-17T19:22:50.798Z,4.80
2018-08-17T19:25:20.306Z,4.50
2018-08-17T19:27:48.786Z,4.77
2018-08-17T19:30:24.943Z,4.67
2018-08-17T19:32:56.724Z,4.40
2018-08-17T19:35:25.198Z,4.70
2018-08-17T19:37:53.743Z,4.63
2018-08-17T19:40:22.574Z,4.73
2018-08-17T19:42:51.036Z,4.83
2018-08-17T19:45:20.083Z,4.70
2018-08-17T19:47:48.739Z,4.47
2018-08-17T19:50:17.304Z,4.47
2018-08-17T19:52:45.810Z,4.53
2018-08-17T19:55:15.576Z,4.60
2018-08-17T19:57:45.069Z,4.47
2018-08-17T20:00:13.993Z,5.00
2018-08-17T20:02:43.136Z,4.63
2018-08-17T20:05:12.192Z,4.60
2018-08-17T20:07:40.783Z,5.27
2018-08-17T20:10:10.700Z,5.00
2018-08-17T20:12:39.307Z,5.20
2018-08-17T20:15:08.223Z,5.33
2018-08-17T20:17:37.214Z,5.27
2018-08-17T20:20:08.339Z,4.83
2018-08-17T20:22:36.849Z,5.20
2018-08-17T20:25:15.908Z,5.00
2018-08-17T20:27:45.184Z,4.83
2018-08-17T20:30:19.281Z,5.33
2018-08-17T20:32:48.681Z,4.93
2018-08-17T20:35:17.146Z,5.20
2018-08-17T20:37:48.854Z,5.00
2018-08-17T20:40:17.853Z,4.80
2018-08-17T20:42:47.552Z,5.13
2018-08-17T20:45:16.190Z,5.00
2018-08-17T20:47:44.901Z,4.23
2018-08-17T20:50:16.548Z,4.83
2018-08-17T20:53:02.469Z,4.80
2018-08-17T20:55:31.294Z,5.93
2018-08-17T20:58:00.258Z,4.27
2018-08-17T21:00:29.382Z,4.37
2018-08-17T21:02:57.876Z,4.10
2018-08-17T21:05:27.199Z,4.20
2018-08-17T21:07:56.461Z,4.03
2018-08-17T21:10:25.126Z,4.30
2018-08-17T21:12:53.751Z,4.03
2018-08-17T21:15:22.321Z,4.40
2018-08-17T21:17:51.114Z,4.53
2018-08-17T21:20:19.627Z,4.80
2018-08-17T21:22:49.155Z,4.80
2018-08-17T21:25:17.760Z,4.83
2018-08-17T21:27:46.245Z,4.70
2018-08-17T21:30:14.769Z,4.70
2018-08-17T21:32:44.755Z,4.43
2018-08-17T21:35:13.228Z,4.40
2018-08-17T21:37:41.825Z,4.50
2018-08-17T21:40:16.983Z,4.70
2018-08-17T21:42:46.239Z,4.30
2018-08-17T21:45:14.849Z,3.80
2018-08-17T21:47:43.428Z,3.70
2018-08-17T21:50:14.997Z,4.10
2018-08-17T21:52:44.234Z,4.10
2018-08-17T21:55:12.870Z,4.20
2018-08-17T21:57:41.397Z,4.43
2018-08-17T22:00:17.796Z,4.40
2018-08-17T22:02:46.298Z,4.70
2018-08-17T22:05:20.147Z,4.60
2018-08-17T22:07:49.376Z,4.73
2018-08-17T22:10:18.807Z,4.83
2018-08-17T22:12:47.449Z,4.90
2018-08-17T22:15:17.355Z,5.13
2018-08-17T22:17:45.953Z,5.60
2018-08-17T22:20:14.445Z,5.73
2018-08-17T22:22:42.940Z,5.83
2018-08-17T22:25:13.055Z,5.77
2018-08-17T22:27:41.690Z,6.07
2018-08-17T22:30:16.991Z,5.80
2018-08-17T22:32:45.418Z,5.70
2018-08-17T22:35:14.047Z,5.53
2018-08-17T22:37:43.833Z,5.97
2018-08-17T22:40:12.558Z,6.27
2018-08-17T22:42:41.122Z,6.07
2018-08-17T22:45:09.759Z,6.10
2018-08-17T22:47:38.317Z,5.40
2018-08-17T22:50:06.943Z,5.70
2018-08-17T22:52:35.530Z,5.90
2018-08-17T22:55:07.670Z,6.00
2018-08-17T22:57:36.637Z,5.73
2018-08-17T23:00:17.466Z,5.87
2018-08-17T23:02:46.930Z,6.17
2018-08-17T23:05:18.386Z,6.27
2018-08-17T23:07:47.037Z,5.70
2018-08-17T23:10:20.128Z,6.10
2018-08-17T23:12:49.817Z,6.10
2018-08-17T23:15:18.387Z,5.83
2018-08-17T23:17:51.348Z,6.00
2018-08-17T23:20:25.406Z,5.83
2018-08-17T23:22:55.210Z,5.83
2018-08-17T23:25:23.705Z,6.10
2018-08-17T23:27:52.295Z,5.87
2018-08-17T23:30:20.746Z,6.43
2018-08-17T23:32:49.346Z,6.17
2018-08-17T23:35:17.856Z,6.30
2018-08-17T23:37:46.710Z,6.10
2018-08-17T23:40:15.173Z,6.17
2018-08-17T23:42:43.758Z,6.27
2018-08-17T23:45:13.841Z,5.60
2018-08-17T23:47:42.363Z,5.77
2018-08-17T23:50:12.260Z,6.47
2018-08-17T23:52:41.226Z,6.57
2018-08-17T23:55:12.080Z,6.20
2018-08-17T23:57:40.563Z,6.13
